sensor_id;sensor_type;location;lat;lon;timestamp;temperature;humidity
8565;DHT22;4320;51.498;6.556;2023-08-20T00:00:28;21.20;99.90
8565;DHT22;4320;51.498;6.556;2023-08-20T00:03:09;21.10;99.90
8565;DHT22;4320;51.498;6.556;2023-08-20T00:05:36;21.10;99.90
8565;DHT22;4320;51.498;6.556;2023-08-20T00:08:01;21.10;99.90
8565;DHT22;4320;51.498;6.556;2023-08-20T00:10:28;21.10;99.90
8565;DHT22;4320;51.498;6.556;2023-08-20T00:12:53;20.90;99.90
8565;DHT22;4320;51.498;6.556;2023-08-20T00:15:19;20.80;99.90
8565;DHT22;4320;51.498;6.556;2023-08-20T00:17:45;20.70;99.90
8565;DHT22;4320;51.498;6.556;2023-08-20T00:20:14;20.70;99.90
8565;DHT22;4320;51.498;6.556;2023-08-20T00:22:43;20.70;99.90
8565;DHT22;4320;51.498;6.556;2023-08-20T00:25:11;20.80;99.90
8565;DHT22;4320;51.498;6.556;2023-08-20T00:27:39;20.70;99.90
8565;DHT22;4320;51.498;6.556;2023-08-20T00:30:05;20.70;99.90
8565;DHT22;4320;51.498;6.556;2023-08-20T00:32:31;20.80;99.90
8565;DHT22;4320;51.498;6.556;2023-08-20T00:34:56;20.60;99.90
8565;DHT22;4320;51.498;6.556;2023-08-20T00:37:22;20.50;99.90
8565;DHT22;4320;51.498;6.556;2023-08-20T00:39:48;20.50;99.90
8565;DHT22;4320;51.498;6.556;2023-08-20T00:42:14;20.40;99.90
8565;DHT22;4320;51.498;6.556;2023-08-20T00:44:40;20.40;99.90
8565;DHT22;4320;51.498;6.556;2023-08-20T00:47:13;20.60;99.90
8565;DHT22;4320;51.498;6.556;2023-08-20T00:49:39;20.70;99.90
8565;DHT22;4320;51.498;6.556;2023-08-20T00:52:08;20.70;99.90
8565;DHT22;4320;51.498;6.556;2023-08-20T00:54:34;20.70;99.90
8565;DHT22;4320;51.498;6.556;2023-08-20T00:57:01;20.60;99.90
8565;DHT22;4320;51.498;6.556;2023-08-20T00:59:28;20.50;99.90
8565;DHT22;4320;51.498;6.556;2023-08-20T01:01:54;20.60;99.90
8565;DHT22;4320;51.498;6.556;2023-08-20T01:04:19;20.70;99.90
8565;DHT22;4320;51.498;6.556;2023-08-20T01:06:59;20.70;99.90
8565;DHT22;4320;51.498;6.556;2023-08-20T01:09:43;20.80;99.90
8565;DHT22;4320;51.498;6.556;2023-08-20T01:12:13;20.60;99.90
8565;DHT22;4320;51.498;6.556;2023-08-20T01:14:39;20.60;99.90
8565;DHT22;4320;51.498;6.556;2023-08-20T01:17:05;20.80;99.90
8565;DHT22;4320;51.498;6.556;2023-08-20T01:19:31;20.80;99.90
8565;DHT22;4320;51.498;6.556;2023-08-20T01:30:08;20.50;99.90
8565;DHT22;4320;51.498;6.556;2023-08-20T01:32:36;20.40;99.90
8565;DHT22;4320;51.498;6.556;2023-08-20T01:35:02;20.50;99.90
8565;DHT22;4320;51.498;6.556;2023-08-20T01:37:28;20.60;99.90
8565;DHT22;4320;51.498;6.556;2023-08-20T01:39:54;20.50;99.90
8565;DHT22;4320;51.498;6.556;2023-08-20T01:42:19;20.60;99.90
8565;DHT22;4320;51.498;6.556;2023-08-20T01:44:45;20.60;99.90
8565;DHT22;4320;51.498;6.556;2023-08-20T01:47:11;20.60;99.90
8565;DHT22;4320;51.498;6.556;2023-08-20T01:49:36;20.20;99.90
8565;DHT22;4320;51.498;6.556;2023-08-20T01:52:02;20.00;99.90
8565;DHT22;4320;51.498;6.556;2023-08-20T01:54:27;20.00;99.90
8565;DHT22;4320;51.498;6.556;2023-08-20T01:56:54;20.00;99.90
8565;DHT22;4320;51.498;6.556;2023-08-20T01:59:22;19.90;99.90
8565;DHT22;4320;51.498;6.556;2023-08-20T02:01:49;19.80;99.90
8565;DHT22;4320;51.498;6.556;2023-08-20T02:04:14;19.80;99.90
8565;DHT22;4320;51.498;6.556;2023-08-20T02:06:40;19.80;99.90
8565;DHT22;4320;51.498;6.556;2023-08-20T02:09:05;19.70;99.90
8565;DHT22;4320;51.498;6.556;2023-08-20T02:11:31;19.90;99.90
8565;DHT22;4320;51.498;6.556;2023-08-20T02:14:01;20.00;99.90
8565;DHT22;4320;51.498;6.556;2023-08-20T02:16:27;19.90;99.90
8565;DHT22;4320;51.498;6.556;2023-08-20T02:18:52;19.80;99.90
8565;DHT22;4320;51.498;6.556;2023-08-20T02:21:18;19.80;99.90
8565;DHT22;4320;51.498;6.556;2023-08-20T02:23:43;19.90;99.90
8565;DHT22;4320;51.498;6.556;2023-08-20T02:26:09;20.00;99.90
8565;DHT22;4320;51.498;6.556;2023-08-20T02:28:35;20.30;99.90
8565;DHT22;4320;51.498;6.556;2023-08-20T02:31:04;20.30;99.90
8565;DHT22;4320;51.498;6.556;2023-08-20T02:33:30;20.40;99.90
8565;DHT22;4320;51.498;6.556;2023-08-20T02:36:00;20.50;99.90
8565;DHT22;4320;51.498;6.556;2023-08-20T02:38:26;20.60;99.90
8565;DHT22;4320;51.498;6.556;2023-08-20T02:40:51;20.60;99.90
8565;DHT22;4320;51.498;6.556;2023-08-20T02:43:17;20.30;99.90
8565;DHT22;4320;51.498;6.556;2023-08-20T02:45:43;20.40;99.90
8565;DHT22;4320;51.498;6.556;2023-08-20T02:48:08;20.40;99.90
8565;DHT22;4320;51.498;6.556;2023-08-20T02:50:35;20.20;99.90
8565;DHT22;4320;51.498;6.556;2023-08-20T02:53:00;20.00;99.90
8565;DHT22;4320;51.498;6.556;2023-08-20T02:55:26;19.90;99.90
8565;DHT22;4320;51.498;6.556;2023-08-20T02:57:52;19.80;99.90
8565;DHT22;4320;51.498;6.556;2023-08-20T03:00:17;19.70;99.90
8565;DHT22;4320;51.498;6.556;2023-08-20T03:02:43;19.70;99.90
8565;DHT22;4320;51.498;6.556;2023-08-20T03:05:10;20.00;99.90
8565;DHT22;4320;51.498;6.556;2023-08-20T03:07:35;20.30;99.90
8565;DHT22;4320;51.498;6.556;2023-08-20T03:10:01;20.40;99.90
8565;DHT22;4320;51.498;6.556;2023-08-20T03:12:28;20.40;99.90
8565;DHT22;4320;51.498;6.556;2023-08-20T03:14:54;20.20;99.90
8565;DHT22;4320;51.498;6.556;2023-08-20T03:17:20;20.10;99.90
8565;DHT22;4320;51.498;6.556;2023-08-20T03:19:59;20.00;99.90
8565;DHT22;4320;51.498;6.556;2023-08-20T03:22:26;20.00;99.90
8565;DHT22;4320;51.498;6.556;2023-08-20T03:24:52;20.00;99.90
8565;DHT22;4320;51.498;6.556;2023-08-20T03:27:18;20.00;99.90
8565;DHT22;4320;51.498;6.556;2023-08-20T03:29:45;20.00;99.90
8565;DHT22;4320;51.498;6.556;2023-08-20T03:32:11;20.30;99.90
8565;DHT22;4320;51.498;6.556;2023-08-20T03:34:37;20.30;99.90
8565;DHT22;4320;51.498;6.556;2023-08-20T03:37:03;20.20;99.90
8565;DHT22;4320;51.498;6.556;2023-08-20T03:39:29;20.20;99.90
8565;DHT22;4320;51.498;6.556;2023-08-20T03:41:55;20.30;99.90
8565;DHT22;4320;51.498;6.556;2023-08-20T03:44:21;20.40;99.90
8565;DHT22;4320;51.498;6.556;2023-08-20T03:46:46;20.20;99.90
8565;DHT22;4320;51.498;6.556;2023-08-20T03:49:12;20.20;99.90
8565;DHT22;4320;51.498;6.556;2023-08-20T03:51:37;20.20;99.90
8565;DHT22;4320;51.498;6.556;2023-08-20T03:54:03;20.20;99.90
8565;DHT22;4320;51.498;6.556;2023-08-20T03:56:29;20.30;99.90
8565;DHT22;4320;51.498;6.556;2023-08-20T03:58:55;20.30;99.90
8565;DHT22;4320;51.498;6.556;2023-08-20T04:01:21;20.10;99.90
8565;DHT22;4320;51.498;6.556;2023-08-20T04:03:47;20.00;99.90
8565;DHT22;4320;51.498;6.556;2023-08-20T04:06:14;19.90;99.90
8565;DHT22;4320;51.498;6.556;2023-08-20T04:08:39;19.90;99.90
8565;DHT22;4320;51.498;6.556;2023-08-20T04:11:05;20.00;99.90
8565;DHT22;4320;51.498;6.556;2023-08-20T04:13:31;20.10;99.90
8565;DHT22;4320;51.498;6.556;2023-08-20T04:15:57;20.20;99.90
8565;DHT22;4320;51.498;6.556;2023-08-20T04:18:22;20.00;99.90
8565;DHT22;4320;51.498;6.556;2023-08-20T04:20:51;19.90;99.90
8565;DHT22;4320;51.498;6.556;2023-08-20T04:23:17;19.90;99.90
8565;DHT22;4320;51.498;6.556;2023-08-20T04:25:43;20.00;99.90
8565;DHT22;4320;51.498;6.556;2023-08-20T04:28:10;20.10;99.90
8565;DHT22;4320;51.498;6.556;2023-08-20T04:30:36;19.90;99.90
8565;DHT22;4320;51.498;6.556;2023-08-20T04:33:02;19.90;99.90
8565;DHT22;4320;51.498;6.556;2023-08-20T04:35:27;19.90;99.90
8565;DHT22;4320;51.498;6.556;2023-08-20T04:37:53;20.00;99.90
8565;DHT22;4320;51.498;6.556;2023-08-20T04:40:19;20.10;99.90
8565;DHT22;4320;51.498;6.556;2023-08-20T04:42:44;20.10;99.90
8565;DHT22;4320;51.498;6.556;2023-08-20T04:45:10;20.00;99.90
8565;DHT22;4320;51.498;6.556;2023-08-20T04:47:38;19.90;99.90
8565;DHT22;4320;51.498;6.556;2023-08-20T04:50:05;19.90;99.90
8565;DHT22;4320;51.498;6.556;2023-08-20T04:52:33;19.90;99.90
8565;DHT22;4320;51.498;6.556;2023-08-20T04:55:00;19.90;99.90
8565;DHT22;4320;51.498;6.556;2023-08-20T04:57:25;20.00;99.90
8565;DHT22;4320;51.498;6.556;2023-08-20T04:59:51;20.10;99.90
8565;DHT22;4320;51.498;6.556;2023-08-20T05:02:17;20.20;99.90
8565;DHT22;4320;51.498;6.556;2023-08-20T05:04:42;20.20;99.90
8565;DHT22;4320;51.498;6.556;2023-08-20T05:07:08;20.20;99.90
8565;DHT22;4320;51.498;6.556;2023-08-20T05:09:34;20.20;99.90
8565;DHT22;4320;51.498;6.556;2023-08-20T05:12:00;20.10;99.90
8565;DHT22;4320;51.498;6.556;2023-08-20T05:14:26;20.00;99.90
8565;DHT22;4320;51.498;6.556;2023-08-20T05:16:51;20.10;99.90
8565;DHT22;4320;51.498;6.556;2023-08-20T05:19:17;20.20;99.90
8565;DHT22;4320;51.498;6.556;2023-08-20T05:21:42;20.30;99.90
8565;DHT22;4320;51.498;6.556;2023-08-20T05:24:08;20.30;99.90
8565;DHT22;4320;51.498;6.556;2023-08-20T05:26:34;20.30;99.90
8565;DHT22;4320;51.498;6.556;2023-08-20T05:29:00;20.30;99.90
8565;DHT22;4320;51.498;6.556;2023-08-20T05:31:26;20.20;99.90
8565;DHT22;4320;51.498;6.556;2023-08-20T05:33:51;20.30;99.90
8565;DHT22;4320;51.498;6.556;2023-08-20T05:36:20;20.50;99.90
8565;DHT22;4320;51.498;6.556;2023-08-20T05:38:45;20.50;99.90
8565;DHT22;4320;51.498;6.556;2023-08-20T05:41:11;20.50;99.90
8565;DHT22;4320;51.498;6.556;2023-08-20T05:43:37;20.50;99.90
8565;DHT22;4320;51.498;6.556;2023-08-20T05:46:03;20.50;99.90
8565;DHT22;4320;51.498;6.556;2023-08-20T05:48:28;20.60;99.90
8565;DHT22;4320;51.498;6.556;2023-08-20T05:50:54;20.60;99.90
8565;DHT22;4320;51.498;6.556;2023-08-20T05:53:21;20.70;99.90
8565;DHT22;4320;51.498;6.556;2023-08-20T05:55:47;20.70;99.90
8565;DHT22;4320;51.498;6.556;2023-08-20T05:58:13;20.70;99.90
8565;DHT22;4320;51.498;6.556;2023-08-20T06:00:38;20.70;99.90
8565;DHT22;4320;51.498;6.556;2023-08-20T06:03:04;21.00;99.90
8565;DHT22;4320;51.498;6.556;2023-08-20T06:05:30;21.20;99.90
8565;DHT22;4320;51.498;6.556;2023-08-20T06:07:56;21.50;99.90
8565;DHT22;4320;51.498;6.556;2023-08-20T06:10:21;21.60;99.90
8565;DHT22;4320;51.498;6.556;2023-08-20T06:12:47;21.50;99.90
8565;DHT22;4320;51.498;6.556;2023-08-20T06:15:14;21.40;99.90
8565;DHT22;4320;51.498;6.556;2023-08-20T06:17:39;21.60;99.90
8565;DHT22;4320;51.498;6.556;2023-08-20T06:20:05;21.50;99.90
8565;DHT22;4320;51.498;6.556;2023-08-20T06:22:33;21.60;99.90
8565;DHT22;4320;51.498;6.556;2023-08-20T06:24:59;21.90;99.90
8565;DHT22;4320;51.498;6.556;2023-08-20T06:27:24;21.80;99.90
8565;DHT22;4320;51.498;6.556;2023-08-20T06:29:50;22.00;99.90
8565;DHT22;4320;51.498;6.556;2023-08-20T06:32:15;22.10;99.90
8565;DHT22;4320;51.498;6.556;2023-08-20T06:34:41;22.10;99.90
8565;DHT22;4320;51.498;6.556;2023-08-20T06:37:06;22.40;99.90
8565;DHT22;4320;51.498;6.556;2023-08-20T06:39:32;22.40;99.90
8565;DHT22;4320;51.498;6.556;2023-08-20T06:41:58;22.50;99.90
8565;DHT22;4320;51.498;6.556;2023-08-20T06:44:23;22.50;99.90
8565;DHT22;4320;51.498;6.556;2023-08-20T06:46:49;22.50;99.90
8565;DHT22;4320;51.498;6.556;2023-08-20T06:49:15;22.60;99.90
8565;DHT22;4320;51.498;6.556;2023-08-20T06:51:40;22.70;99.90
8565;DHT22;4320;51.498;6.556;2023-08-20T06:54:06;22.80;99.90
8565;DHT22;4320;51.498;6.556;2023-08-20T06:56:32;23.40;99.90
8565;DHT22;4320;51.498;6.556;2023-08-20T06:58:58;23.90;99.90
8565;DHT22;4320;51.498;6.556;2023-08-20T07:01:23;24.70;99.90
8565;DHT22;4320;51.498;6.556;2023-08-20T07:03:49;25.50;99.90
8565;DHT22;4320;51.498;6.556;2023-08-20T07:06:15;25.80;99.90
8565;DHT22;4320;51.498;6.556;2023-08-20T07:08:43;25.50;99.90
8565;DHT22;4320;51.498;6.556;2023-08-20T07:11:09;24.90;99.90
8565;DHT22;4320;51.498;6.556;2023-08-20T07:13:35;25.00;99.90
8565;DHT22;4320;51.498;6.556;2023-08-20T07:16:01;25.30;99.90
8565;DHT22;4320;51.498;6.556;2023-08-20T07:18:27;25.70;99.90
8565;DHT22;4320;51.498;6.556;2023-08-20T07:20:52;25.80;99.90
8565;DHT22;4320;51.498;6.556;2023-08-20T07:23:18;25.80;99.90
8565;DHT22;4320;51.498;6.556;2023-08-20T07:25:44;25.60;99.90
8565;DHT22;4320;51.498;6.556;2023-08-20T07:28:12;25.10;99.90
8565;DHT22;4320;51.498;6.556;2023-08-20T07:30:38;25.10;99.90
8565;DHT22;4320;51.498;6.556;2023-08-20T07:33:05;25.10;99.90
8565;DHT22;4320;51.498;6.556;2023-08-20T07:35:31;24.80;99.90
8565;DHT22;4320;51.498;6.556;2023-08-20T07:37:56;25.00;99.90
8565;DHT22;4320;51.498;6.556;2023-08-20T07:40:22;25.30;99.90
8565;DHT22;4320;51.498;6.556;2023-08-20T07:42:48;25.80;99.90
8565;DHT22;4320;51.498;6.556;2023-08-20T07:45:15;26.00;99.90
8565;DHT22;4320;51.498;6.556;2023-08-20T07:47:41;26.40;99.90
8565;DHT22;4320;51.498;6.556;2023-08-20T07:50:06;26.70;99.90
8565;DHT22;4320;51.498;6.556;2023-08-20T07:52:33;26.80;99.90
8565;DHT22;4320;51.498;6.556;2023-08-20T07:54:59;26.50;99.90
8565;DHT22;4320;51.498;6.556;2023-08-20T07:57:24;26.90;99.90
8565;DHT22;4320;51.498;6.556;2023-08-20T07:59:51;26.90;99.90
8565;DHT22;4320;51.498;6.556;2023-08-20T08:02:19;26.30;99.90
8565;DHT22;4320;51.498;6.556;2023-08-20T08:04:45;26.10;99.90
8565;DHT22;4320;51.498;6.556;2023-08-20T08:07:11;26.20;99.90
8565;DHT22;4320;51.498;6.556;2023-08-20T08:09:37;26.10;99.90
8565;DHT22;4320;51.498;6.556;2023-08-20T08:12:03;25.90;99.90
8565;DHT22;4320;51.498;6.556;2023-08-20T08:14:29;25.70;99.90
8565;DHT22;4320;51.498;6.556;2023-08-20T08:16:55;25.60;99.90
8565;DHT22;4320;51.498;6.556;2023-08-20T08:19:21;25.60;99.90
8565;DHT22;4320;51.498;6.556;2023-08-20T08:21:47;25.60;99.90
8565;DHT22;4320;51.498;6.556;2023-08-20T08:24:13;25.60;99.90
8565;DHT22;4320;51.498;6.556;2023-08-20T08:26:39;25.80;99.90
8565;DHT22;4320;51.498;6.556;2023-08-20T08:29:07;25.30;99.90
8565;DHT22;4320;51.498;6.556;2023-08-20T08:31:33;25.20;99.90
8565;DHT22;4320;51.498;6.556;2023-08-20T08:33:58;25.10;99.90
8565;DHT22;4320;51.498;6.556;2023-08-20T08:36:24;25.10;99.90
8565;DHT22;4320;51.498;6.556;2023-08-20T08:38:51;25.00;99.90
8565;DHT22;4320;51.498;6.556;2023-08-20T08:41:16;24.90;99.90
8565;DHT22;4320;51.498;6.556;2023-08-20T08:43:42;25.10;99.90
8565;DHT22;4320;51.498;6.556;2023-08-20T08:46:13;24.90;99.90
8565;DHT22;4320;51.498;6.556;2023-08-20T08:48:43;24.80;99.90
8565;DHT22;4320;51.498;6.556;2023-08-20T08:51:09;24.90;99.90
8565;DHT22;4320;51.498;6.556;2023-08-20T08:53:35;25.10;99.90
8565;DHT22;4320;51.498;6.556;2023-08-20T08:56:02;25.30;99.90
8565;DHT22;4320;51.498;6.556;2023-08-20T08:58:36;25.50;99.90
8565;DHT22;4320;51.498;6.556;2023-08-20T09:01:02;25.50;99.90
8565;DHT22;4320;51.498;6.556;2023-08-20T09:03:28;25.40;99.90
8565;DHT22;4320;51.498;6.556;2023-08-20T09:05:58;25.40;99.90
8565;DHT22;4320;51.498;6.556;2023-08-20T09:08:31;25.10;99.90
8565;DHT22;4320;51.498;6.556;2023-08-20T09:11:00;25.00;99.90
8565;DHT22;4320;51.498;6.556;2023-08-20T09:13:33;25.10;99.90
8565;DHT22;4320;51.498;6.556;2023-08-20T09:15:59;25.20;99.90
8565;DHT22;4320;51.498;6.556;2023-08-20T09:18:29;24.90;99.90
8565;DHT22;4320;51.498;6.556;2023-08-20T09:20:57;24.90;99.90
8565;DHT22;4320;51.498;6.556;2023-08-20T09:23:24;25.00;99.90
8565;DHT22;4320;51.498;6.556;2023-08-20T09:25:53;24.90;99.90
8565;DHT22;4320;51.498;6.556;2023-08-20T09:28:18;24.80;99.90
8565;DHT22;4320;51.498;6.556;2023-08-20T09:31:02;24.80;99.90
8565;DHT22;4320;51.498;6.556;2023-08-20T09:33:28;24.80;99.90
8565;DHT22;4320;51.498;6.556;2023-08-20T09:35:54;25.00;99.90
8565;DHT22;4320;51.498;6.556;2023-08-20T09:38:21;25.30;99.90
8565;DHT22;4320;51.498;6.556;2023-08-20T09:40:49;25.50;99.90
8565;DHT22;4320;51.498;6.556;2023-08-20T09:43:16;25.60;99.90
8565;DHT22;4320;51.498;6.556;2023-08-20T09:45:42;25.70;99.90
8565;DHT22;4320;51.498;6.556;2023-08-20T09:48:09;26.00;98.60
8565;DHT22;4320;51.498;6.556;2023-08-20T09:50:37;26.00;97.60
8565;DHT22;4320;51.498;6.556;2023-08-20T09:53:34;25.90;97.30
8565;DHT22;4320;51.498;6.556;2023-08-20T09:56:09;25.90;97.70
8565;DHT22;4320;51.498;6.556;2023-08-20T09:58:39;25.90;94.80
8565;DHT22;4320;51.498;6.556;2023-08-20T10:01:06;25.80;94.60
8565;DHT22;4320;51.498;6.556;2023-08-20T10:03:32;25.60;96.00
8565;DHT22;4320;51.498;6.556;2023-08-20T10:05:58;25.50;97.10
8565;DHT22;4320;51.498;6.556;2023-08-20T10:08:25;25.60;98.10
8565;DHT22;4320;51.498;6.556;2023-08-20T10:10:51;25.80;97.50
8565;DHT22;4320;51.498;6.556;2023-08-20T10:13:17;25.70;95.50
8565;DHT22;4320;51.498;6.556;2023-08-20T10:15:43;25.50;96.60
8565;DHT22;4320;51.498;6.556;2023-08-20T10:18:10;25.50;97.00
8565;DHT22;4320;51.498;6.556;2023-08-20T10:20:35;25.50;97.90
8565;DHT22;4320;51.498;6.556;2023-08-20T10:23:03;25.30;95.30
8565;DHT22;4320;51.498;6.556;2023-08-20T10:25:30;25.40;94.80
8565;DHT22;4320;51.498;6.556;2023-08-20T10:28:12;25.50;93.30
8565;DHT22;4320;51.498;6.556;2023-08-20T10:30:38;25.50;96.00
8565;DHT22;4320;51.498;6.556;2023-08-20T10:33:24;25.40;95.10
8565;DHT22;4320;51.498;6.556;2023-08-20T10:35:50;25.30;93.00
8565;DHT22;4320;51.498;6.556;2023-08-20T10:38:17;25.20;93.60
8565;DHT22;4320;51.498;6.556;2023-08-20T10:40:56;24.90;94.20
8565;DHT22;4320;51.498;6.556;2023-08-20T10:43:49;25.00;92.80
8565;DHT22;4320;51.498;6.556;2023-08-20T10:46:22;25.30;93.40
8565;DHT22;4320;51.498;6.556;2023-08-20T10:49:02;25.50;91.30
8565;DHT22;4320;51.498;6.556;2023-08-20T10:51:33;25.60;88.10
8565;DHT22;4320;51.498;6.556;2023-08-20T10:56:40;25.50;85.80
8565;DHT22;4320;51.498;6.556;2023-08-20T10:59:17;25.70;83.70
8565;DHT22;4320;51.498;6.556;2023-08-20T11:01:50;25.80;79.80
8565;DHT22;4320;51.498;6.556;2023-08-20T11:04:17;25.90;75.30
8565;DHT22;4320;51.498;6.556;2023-08-20T11:06:44;25.90;79.10
8565;DHT22;4320;51.498;6.556;2023-08-20T11:09:10;25.80;78.70
8565;DHT22;4320;51.498;6.556;2023-08-20T11:11:39;25.60;75.00
8565;DHT22;4320;51.498;6.556;2023-08-20T11:14:13;25.60;77.50
8565;DHT22;4320;51.498;6.556;2023-08-20T11:16:40;25.60;75.80
8565;DHT22;4320;51.498;6.556;2023-08-20T11:19:05;25.60;70.80
8565;DHT22;4320;51.498;6.556;2023-08-20T11:21:40;25.80;74.00
8565;DHT22;4320;51.498;6.556;2023-08-20T11:24:07;25.90;67.40
8565;DHT22;4320;51.498;6.556;2023-08-20T11:26:34;25.80;62.80
8565;DHT22;4320;51.498;6.556;2023-08-20T11:29:06;25.70;59.90
8565;DHT22;4320;51.498;6.556;2023-08-20T11:31:32;25.70;55.70
8565;DHT22;4320;51.498;6.556;2023-08-20T11:33:58;25.70;56.60
8565;DHT22;4320;51.498;6.556;2023-08-20T11:36:23;25.90;50.90
8565;DHT22;4320;51.498;6.556;2023-08-20T11:38:53;26.00;49.20
8565;DHT22;4320;51.498;6.556;2023-08-20T11:41:23;26.00;38.70
8565;DHT22;4320;51.498;6.556;2023-08-20T11:43:50;26.00;28.60
8565;DHT22;4320;51.498;6.556;2023-08-20T11:46:19;26.00;22.40
8565;DHT22;4320;51.498;6.556;2023-08-20T11:49:05;26.00;21.00
8565;DHT22;4320;51.498;6.556;2023-08-20T11:51:35;25.90;13.70
8565;DHT22;4320;51.498;6.556;2023-08-20T11:54:04;26.00;8.40
8565;DHT22;4320;51.498;6.556;2023-08-20T11:56:30;26.10;8.40
8565;DHT22;4320;51.498;6.556;2023-08-20T11:58:59;26.10;1.00
8565;DHT22;4320;51.498;6.556;2023-08-20T12:01:26;26.20;1.00
8565;DHT22;4320;51.498;6.556;2023-08-20T12:04:00;26.20;1.00
8565;DHT22;4320;51.498;6.556;2023-08-20T12:06:26;26.20;1.00
8565;DHT22;4320;51.498;6.556;2023-08-20T12:08:55;26.20;1.00
8565;DHT22;4320;51.498;6.556;2023-08-20T12:11:28;26.40;1.00
8565;DHT22;4320;51.498;6.556;2023-08-20T12:13:54;26.60;1.00
8565;DHT22;4320;51.498;6.556;2023-08-20T12:16:22;26.60;1.00
8565;DHT22;4320;51.498;6.556;2023-08-20T12:18:48;26.80;1.00
8565;DHT22;4320;51.498;6.556;2023-08-20T12:21:14;26.60;1.00
8565;DHT22;4320;51.498;6.556;2023-08-20T12:23:41;26.60;1.00
8565;DHT22;4320;51.498;6.556;2023-08-20T12:26:06;26.80;1.00
8565;DHT22;4320;51.498;6.556;2023-08-20T12:28:33;26.70;1.00
8565;DHT22;4320;51.498;6.556;2023-08-20T12:30:59;26.50;1.00
8565;DHT22;4320;51.498;6.556;2023-08-20T12:33:24;26.40;1.00
8565;DHT22;4320;51.498;6.556;2023-08-20T12:35:53;26.90;1.00
8565;DHT22;4320;51.498;6.556;2023-08-20T12:38:19;27.10;1.00
8565;DHT22;4320;51.498;6.556;2023-08-20T12:40:44;27.40;1.00
8565;DHT22;4320;51.498;6.556;2023-08-20T12:43:10;27.50;1.00
8565;DHT22;4320;51.498;6.556;2023-08-20T12:45:35;27.40;1.00
8565;DHT22;4320;51.498;6.556;2023-08-20T12:48:02;27.60;1.00
8565;DHT22;4320;51.498;6.556;2023-08-20T12:50:29;28.00;1.00
8565;DHT22;4320;51.498;6.556;2023-08-20T12:52:54;28.40;1.00
8565;DHT22;4320;51.498;6.556;2023-08-20T12:55:20;28.50;1.00
8565;DHT22;4320;51.498;6.556;2023-08-20T12:57:58;28.30;1.00
8565;DHT22;4320;51.498;6.556;2023-08-20T13:00:25;28.50;1.00
8565;DHT22;4320;51.498;6.556;2023-08-20T13:02:52;28.70;1.00
8565;DHT22;4320;51.498;6.556;2023-08-20T13:05:18;28.90;1.00
8565;DHT22;4320;51.498;6.556;2023-08-20T13:07:44;29.10;1.00
8565;DHT22;4320;51.498;6.556;2023-08-20T13:10:11;28.80;1.00
8565;DHT22;4320;51.498;6.556;2023-08-20T13:12:42;28.80;1.00
8565;DHT22;4320;51.498;6.556;2023-08-20T13:15:13;28.60;1.00
8565;DHT22;4320;51.498;6.556;2023-08-20T13:17:39;28.60;1.00
8565;DHT22;4320;51.498;6.556;2023-08-20T13:20:08;28.70;1.00
8565;DHT22;4320;51.498;6.556;2023-08-20T13:22:34;28.70;1.00
8565;DHT22;4320;51.498;6.556;2023-08-20T13:24:59;29.00;1.00
8565;DHT22;4320;51.498;6.556;2023-08-20T13:27:25;29.10;1.00
8565;DHT22;4320;51.498;6.556;2023-08-20T13:29:51;29.10;1.00
8565;DHT22;4320;51.498;6.556;2023-08-20T13:32:16;29.30;1.00
8565;DHT22;4320;51.498;6.556;2023-08-20T13:34:42;29.20;1.00
8565;DHT22;4320;51.498;6.556;2023-08-20T13:37:07;28.80;1.00
8565;DHT22;4320;51.498;6.556;2023-08-20T13:39:33;28.70;1.00
8565;DHT22;4320;51.498;6.556;2023-08-20T13:41:58;28.60;1.00
8565;DHT22;4320;51.498;6.556;2023-08-20T13:44:24;28.70;1.00
8565;DHT22;4320;51.498;6.556;2023-08-20T13:46:50;28.60;1.00
8565;DHT22;4320;51.498;6.556;2023-08-20T13:49:15;28.50;1.00
8565;DHT22;4320;51.498;6.556;2023-08-20T13:51:41;28.10;1.00
8565;DHT22;4320;51.498;6.556;2023-08-20T13:54:06;28.00;1.00
8565;DHT22;4320;51.498;6.556;2023-08-20T13:56:32;27.90;1.00
8565;DHT22;4320;51.498;6.556;2023-08-20T13:58:58;28.00;1.00
8565;DHT22;4320;51.498;6.556;2023-08-20T14:01:24;28.10;1.00
8565;DHT22;4320;51.498;6.556;2023-08-20T14:03:49;28.20;1.00
8565;DHT22;4320;51.498;6.556;2023-08-20T14:06:15;28.20;1.00
8565;DHT22;4320;51.498;6.556;2023-08-20T14:08:42;28.30;1.00
8565;DHT22;4320;51.498;6.556;2023-08-20T14:11:07;28.20;1.00
8565;DHT22;4320;51.498;6.556;2023-08-20T14:13:33;28.10;1.00
8565;DHT22;4320;51.498;6.556;2023-08-20T14:15:59;28.10;1.00
8565;DHT22;4320;51.498;6.556;2023-08-20T14:18:25;28.00;1.00
8565;DHT22;4320;51.498;6.556;2023-08-20T14:20:51;27.80;1.00
8565;DHT22;4320;51.498;6.556;2023-08-20T14:23:17;27.80;1.00
8565;DHT22;4320;51.498;6.556;2023-08-20T14:25:42;28.00;1.00
8565;DHT22;4320;51.498;6.556;2023-08-20T14:28:08;28.10;1.00
8565;DHT22;4320;51.498;6.556;2023-08-20T14:30:40;28.20;1.00
8565;DHT22;4320;51.498;6.556;2023-08-20T14:33:06;28.10;1.00
8565;DHT22;4320;51.498;6.556;2023-08-20T14:35:32;28.30;1.00
8565;DHT22;4320;51.498;6.556;2023-08-20T14:37:58;28.10;1.00
8565;DHT22;4320;51.498;6.556;2023-08-20T14:40:23;28.00;1.00
8565;DHT22;4320;51.498;6.556;2023-08-20T14:42:50;27.80;1.00
8565;DHT22;4320;51.498;6.556;2023-08-20T14:45:15;27.70;1.00
8565;DHT22;4320;51.498;6.556;2023-08-20T14:47:41;27.60;1.00
8565;DHT22;4320;51.498;6.556;2023-08-20T14:50:07;27.60;1.00
8565;DHT22;4320;51.498;6.556;2023-08-20T14:52:34;27.80;1.00
8565;DHT22;4320;51.498;6.556;2023-08-20T14:55:00;27.90;1.00
8565;DHT22;4320;51.498;6.556;2023-08-20T14:57:26;27.80;1.00
8565;DHT22;4320;51.498;6.556;2023-08-20T14:59:52;27.80;1.00
8565;DHT22;4320;51.498;6.556;2023-08-20T15:02:17;27.80;1.00
8565;DHT22;4320;51.498;6.556;2023-08-20T15:04:43;27.80;1.00
8565;DHT22;4320;51.498;6.556;2023-08-20T15:07:09;27.90;1.00
8565;DHT22;4320;51.498;6.556;2023-08-20T15:09:35;27.60;1.00
8565;DHT22;4320;51.498;6.556;2023-08-20T15:12:01;27.50;1.00
8565;DHT22;4320;51.498;6.556;2023-08-20T15:14:28;27.50;1.00
8565;DHT22;4320;51.498;6.556;2023-08-20T15:16:53;27.70;1.00
8565;DHT22;4320;51.498;6.556;2023-08-20T15:19:19;27.80;1.00
8565;DHT22;4320;51.498;6.556;2023-08-20T15:21:45;27.60;1.00
8565;DHT22;4320;51.498;6.556;2023-08-20T15:24:11;27.60;1.00
8565;DHT22;4320;51.498;6.556;2023-08-20T15:26:36;27.50;1.00
8565;DHT22;4320;51.498;6.556;2023-08-20T15:29:02;27.30;1.00
8565;DHT22;4320;51.498;6.556;2023-08-20T15:31:28;27.30;1.00
8565;DHT22;4320;51.498;6.556;2023-08-20T15:33:54;27.20;1.00
8565;DHT22;4320;51.498;6.556;2023-08-20T15:36:20;27.20;1.00
8565;DHT22;4320;51.498;6.556;2023-08-20T15:38:46;27.30;1.00
8565;DHT22;4320;51.498;6.556;2023-08-20T15:41:13;27.20;1.00
8565;DHT22;4320;51.498;6.556;2023-08-20T15:43:40;27.20;1.00
8565;DHT22;4320;51.498;6.556;2023-08-20T15:46:06;27.00;1.00
8565;DHT22;4320;51.498;6.556;2023-08-20T15:48:32;27.20;1.00
8565;DHT22;4320;51.498;6.556;2023-08-20T15:50:57;27.30;1.00
8565;DHT22;4320;51.498;6.556;2023-08-20T15:53:23;27.30;1.00
8565;DHT22;4320;51.498;6.556;2023-08-20T15:55:48;27.30;1.00
8565;DHT22;4320;51.498;6.556;2023-08-20T15:58:14;27.40;1.00
8565;DHT22;4320;51.498;6.556;2023-08-20T16:00:39;27.40;1.00
8565;DHT22;4320;51.498;6.556;2023-08-20T16:03:05;27.50;1.00
8565;DHT22;4320;51.498;6.556;2023-08-20T16:05:31;27.50;1.00
8565;DHT22;4320;51.498;6.556;2023-08-20T16:07:56;27.30;1.00
8565;DHT22;4320;51.498;6.556;2023-08-20T16:10:22;27.30;1.00
8565;DHT22;4320;51.498;6.556;2023-08-20T16:12:48;27.30;1.00
8565;DHT22;4320;51.498;6.556;2023-08-20T16:15:13;27.30;1.00